Etusivu
METAR-TAF:

METAR-TAF

Lentoasemat :

Quincy Regional Airport (Baldwin Field)

Quincy, Illinois, Yhdysvallat

Leveyspiiri: 39-56-33N, Pituuspiiri: 091-11-40W, korkeus merenpinnasta: 234 m

Tämänhetkinen sää

Tämä raportti tehtiin 31 minuuttia sitten, kello 09.54 UTC
Tuuli 6 kn pohjoisesta/koillisesta
Lämpötila 11°C
Kosteus 87%
Ilmanpaine 1023 hPa
Näkyvyys: 16.1 km
selkeää

METAR: KUIN 180954Z AUTO 03006KT 10SM CLR 11/09 A3022 RMK AO2 SLP231 T01060089

Aika: 05:25 (10:25 UTC)

Sääennuste

Tämä raportti tehtiin 5 tuntia ja 5 minuuttia sitten, kello 05.20 UTC
Ennuste voimassa 18. päivästä klo 06 UTC - 19. päivään klo 06 UTC
Tuuli 7 kn koillisesta
Näkyvyys: 10 km
selkeää

TAF: KUIN 180520Z 1806/1906 04007KT P6SM SKC

Säähavainnot ja -ennusteet yli 4000 lentoasemalta (METAR- ja TAF-raportit).

Käytössä olevat sääasemat on merkitty karttaan keltaisilla ja punaisilla pisteillä.

Aseta hiiri pisteen päälle nähdäksesi sääaseman nimen.

Klikkaa sitten nähdäksesi säähavainnot ja -ennusteet.

Kartan vaihtaminen: klikkaa mustalla rastilla varustettuja vihreitä pisteitä, niin voit zoomata sisään; viivalla varustettua vihreää pistettä, niin voit zoomata ulos tai vihreitä nuolia, niin pääset viereisille kartoille.


METAR-TAF: